Venezia, Italy

07:08 AM CET del 04 Dicembre 2016 (GMT +0100)
Venezia | | Change Station

Alt. 14 ft 45.53 °N, 12.31 °E | Updated 14 seconds ago

Scattered Clouds
Nubi sparse
41.5 °F
Sembra 42 °F
N
0.0
Vento Variabile Vento da NNE
Gusts 1.6 mph

Oggi
Massima -- | Minima -- °F
--% Possibilità di precip.
Ieri
Massima -- | Minima -- °F
Precip. -- in
Pressione 30.27 in
Visibilità 6.2 miglia
Nuvole Nubi sparse 4000 ft
Raffreddamento del vento 42 °F
Punto di rugiada 33 °F
Umidità 71%
Piovosità 0.00 in
Spessore del manto nevoso Non disponibile.
7:34 AM 4:27 PM
Luna crescente, 20% visible
METAR LIPZ 040550Z 02009KT 9999 SCT040 05/M01 Q1025 NOSIG
Pressione 30.27 in
Visibilità 6.2 miglia
Nuvole Nubi sparse 4000 ft
Raffreddamento del vento 42 °F
Punto di rugiada 33 °F
Umidità 71%
Piovosità 0.00 in
Spessore del manto nevoso Non disponibile.
7:34 AM 4:27 PM
Luna crescente, 20% visible
METAR LIPZ 040550Z 02009KT 9999 SCT040 05/M01 Q1025 NOSIG

10-Day Weather Forecast

×

Almanac

Astronomia

Dec. 04, 2016 Alba Tramonto
Ora attuale
Crepuscolo civile
Crepuscolo nautico
Crepuscolo astronomico
Luna
Estensione della luce visibile
Lunghezza del giorno
Tomorrow will be .
, % of the Moon is Illuminated

Gli estremi di oggi

Massime Regione Minime Regione

Community

WunderPhotos

Upload Photos

1,955,587 foto caricate!

WunderBlog® & News

Nearby

Qualità dell'aria

  Qualità dell'aria Indice AQ Inquinante
Not available.

Profondità neve

Stazione Profondità Altitudine

Attività sismica

Città  Distanza Mag. Data & Ora
Minimo Magnitudo Mostrato è 2.5.

Temperature delle acque costiere

Località Temperatura

Stations

Stazioni meteo nelle vicinanze

Ubicazione della stazione Temp. Raffreddamento del vento Punto di rugiada Umidità Vento Precip. Alt. Aggiornato Tipo